createdAt,value
2023-04-18T00:01:06.326Z,11.36
2023-04-18T00:03:34.881Z,11.44
2023-04-18T00:06:03.522Z,11.46
2023-04-18T00:08:31.139Z,11.46
2023-04-18T00:10:58.730Z,11.55
2023-04-18T00:13:28.433Z,11.39
2023-04-18T00:15:56.748Z,11.33
2023-04-18T00:18:26.581Z,11.19
2023-04-18T00:20:55.128Z,11.32
2023-04-18T00:23:23.704Z,11.35
2023-04-18T00:25:51.484Z,11.29
2023-04-18T00:28:19.006Z,11.13
2023-04-18T00:30:47.094Z,11.17
2023-04-18T00:33:14.684Z,11.23
2023-04-18T00:35:42.535Z,11.25
2023-04-18T00:38:10.460Z,11.19
2023-04-18T00:40:38.730Z,11.24
2023-04-18T00:43:08.565Z,11.30
2023-04-18T00:45:37.110Z,11.33
2023-04-18T00:48:05.049Z,11.22
2023-04-18T00:50:33.024Z,11.11
2023-04-18T00:53:00.773Z,11.07
2023-04-18T00:55:28.937Z,11.09
2023-04-18T00:57:56.632Z,11.10
2023-04-18T01:00:43.253Z,11.16
2023-04-18T01:03:14.397Z,11.08
2023-04-18T01:05:42.630Z,11.18
2023-04-18T01:08:11.970Z,11.15
2023-04-18T01:10:39.952Z,11.28
2023-04-18T01:13:20.350Z,11.33
2023-04-18T01:15:50.517Z,11.29
2023-04-18T01:18:18.960Z,11.32
2023-04-18T01:20:53.732Z,11.29
2023-04-18T01:23:22.394Z,11.32
2023-04-18T01:25:50.373Z,11.24
2023-04-18T01:28:23.769Z,11.30
2023-04-18T01:30:51.464Z,11.17
2023-04-18T01:33:19.036Z,11.12
2023-04-18T01:35:48.145Z,11.21
2023-04-18T01:38:15.977Z,11.12
2023-04-18T01:40:44.088Z,10.98
2023-04-18T01:43:11.743Z,11.05
2023-04-18T01:45:40.633Z,10.99
2023-04-18T01:48:09.543Z,10.89
2023-04-18T01:50:37.184Z,10.88
2023-04-18T01:53:04.815Z,10.91
2023-04-18T01:55:32.614Z,10.85
2023-04-18T01:58:00.339Z,10.95
2023-04-18T02:00:28.011Z,10.99
2023-04-18T02:02:58.724Z,11.03
2023-04-18T02:05:29.890Z,11.03
2023-04-18T02:07:57.915Z,10.94
2023-04-18T02:10:26.035Z,10.85
2023-04-18T02:12:53.754Z,10.82
2023-04-18T02:15:23.819Z,10.95
2023-04-18T02:17:51.446Z,10.97
2023-04-18T02:20:19.265Z,11.05
2023-04-18T02:22:48.778Z,10.93
2023-04-18T02:25:16.991Z,10.94
2023-04-18T02:27:44.916Z,10.85
2023-04-18T02:30:12.861Z,10.82
2023-04-18T02:32:40.471Z,10.85
2023-04-18T02:35:08.841Z,10.91
2023-04-18T02:37:37.341Z,10.83
2023-04-18T02:40:07.214Z,10.86
2023-04-18T02:42:35.285Z,10.58
2023-04-18T02:45:03.363Z,10.52
2023-04-18T02:47:37.532Z,10.61
2023-04-18T02:50:11.650Z,10.60
2023-04-18T02:52:39.701Z,10.70
2023-04-18T02:55:09.655Z,10.66
2023-04-18T02:57:41.144Z,10.75
2023-04-18T03:00:13.686Z,10.79
2023-04-18T03:02:58.259Z,10.44
2023-04-18T03:05:40.789Z,10.74
2023-04-18T03:08:08.871Z,10.73
2023-04-18T03:10:39.500Z,10.68
2023-04-18T03:13:07.456Z,10.75
2023-04-18T03:15:35.290Z,10.39
2023-04-18T03:18:04.238Z,10.53
2023-04-18T03:20:35.243Z,10.65
2023-04-18T03:23:03.111Z,10.60
2023-04-18T03:25:32.226Z,10.71
2023-04-18T03:28:00.357Z,10.65
2023-04-18T03:30:28.909Z,10.68
2023-04-18T03:32:59.474Z,10.65
2023-04-18T03:35:27.089Z,10.71
2023-04-18T03:37:55.676Z,10.85
2023-04-18T03:40:26.688Z,10.90
2023-04-18T03:42:59.991Z,10.98
2023-04-18T03:45:27.851Z,11.07
2023-04-18T03:47:56.432Z,10.87
2023-04-18T03:50:25.731Z,10.92
2023-04-18T03:52:55.400Z,10.79
2023-04-18T03:55:23.012Z,10.60
2023-04-18T03:57:51.511Z,10.78
2023-04-18T04:00:29.373Z,10.77
2023-04-18T04:03:06.895Z,10.62
2023-04-18T04:05:35.026Z,10.75
2023-04-18T04:08:02.878Z,10.78
2023-04-18T04:10:31.278Z,10.80
2023-04-18T04:12:59.138Z,10.86
2023-04-18T04:15:27.324Z,10.64
2023-04-18T04:18:06.287Z,10.63
2023-04-18T04:20:36.495Z,10.70
2023-04-18T04:23:11.351Z,10.80
2023-04-18T04:25:40.767Z,10.67
2023-04-18T04:28:28.644Z,10.72
2023-04-18T04:31:01.982Z,10.71
2023-04-18T04:33:29.815Z,10.73
2023-04-18T04:36:02.210Z,10.68
2023-04-18T04:38:34.235Z,10.79
2023-04-18T04:41:02.757Z,10.90
2023-04-18T04:43:31.281Z,10.87
2023-04-18T04:46:04.904Z,10.70
2023-04-18T04:48:33.174Z,10.47
2023-04-18T04:51:01.724Z,10.77
2023-04-18T04:53:33.088Z,10.82
2023-04-18T04:56:04.698Z,10.82
2023-04-18T04:58:34.539Z,10.75
2023-04-18T05:01:19.626Z,10.74
2023-04-18T05:03:47.908Z,10.74
2023-04-18T05:06:23.397Z,10.72
2023-04-18T05:08:51.616Z,10.74
2023-04-18T05:11:19.481Z,10.85
2023-04-18T05:13:47.255Z,10.76
2023-04-18T05:16:14.922Z,10.81
2023-04-18T05:18:42.796Z,10.90
2023-04-18T05:21:11.158Z,10.87
2023-04-18T05:23:39.894Z,10.99
2023-04-18T05:26:08.168Z,11.08
2023-04-18T05:28:35.727Z,10.96
2023-04-18T05:31:03.500Z,11.05
2023-04-18T05:33:32.129Z,11.19
2023-04-18T05:36:00.186Z,11.08
2023-04-18T05:38:28.456Z,11.16
2023-04-18T05:40:57.174Z,11.16
2023-04-18T05:43:27.851Z,11.19
2023-04-18T05:45:58.079Z,11.16
2023-04-18T05:48:29.213Z,11.16
2023-04-18T05:50:57.826Z,11.18
2023-04-18T05:53:25.550Z,11.33
2023-04-18T05:55:53.365Z,11.38
2023-04-18T05:58:21.141Z,11.37
2023-04-18T06:00:48.840Z,11.54
2023-04-18T06:03:16.937Z,11.37
2023-04-18T06:05:45.532Z,11.47
2023-04-18T06:08:13.281Z,11.51
2023-04-18T06:10:40.918Z,11.42
2023-04-18T06:13:08.531Z,11.19
2023-04-18T06:15:36.112Z,11.30
2023-04-18T06:18:29.518Z,11.48
2023-04-18T06:20:57.227Z,11.48
2023-04-18T06:23:25.288Z,11.71
2023-04-18T06:25:53.814Z,11.50
2023-04-18T06:28:21.830Z,11.78
2023-04-18T06:30:49.518Z,11.63
2023-04-18T06:33:17.168Z,11.68
2023-04-18T06:35:45.053Z,11.89
2023-04-18T06:38:13.339Z,11.98
2023-04-18T06:40:41.237Z,12.19
2023-04-18T06:43:08.893Z,12.08
2023-04-18T06:45:36.907Z,12.09
2023-04-18T06:48:06.016Z,12.07
2023-04-18T06:50:33.743Z,12.29
2023-04-18T06:53:02.191Z,12.33
2023-04-18T06:55:29.843Z,12.19
2023-04-18T06:57:57.895Z,12.20
2023-04-18T07:00:26.146Z,12.22
2023-04-18T07:02:54.091Z,12.24
2023-04-18T07:05:23.540Z,12.40
2023-04-18T07:07:51.593Z,12.27
2023-04-18T07:10:19.206Z,12.34
2023-04-18T07:12:47.625Z,12.42
2023-04-18T07:15:15.341Z,12.45
2023-04-18T07:17:43.035Z,12.82
2023-04-18T07:20:12.342Z,12.47
2023-04-18T07:22:42.182Z,12.58
2023-04-18T07:25:15.682Z,12.81
2023-04-18T07:27:43.581Z,12.51
2023-04-18T07:30:11.954Z,12.78
2023-04-18T07:32:39.639Z,12.59
2023-04-18T07:35:07.755Z,12.82
2023-04-18T07:37:36.044Z,12.29
2023-04-18T07:40:05.100Z,12.65
2023-04-18T07:42:32.910Z,12.60
2023-04-18T07:45:00.651Z,12.97
2023-04-18T07:47:30.364Z,12.81
2023-04-18T07:49:58.757Z,12.79
2023-04-18T07:52:29.048Z,12.99
2023-04-18T07:54:56.712Z,13.10
2023-04-18T07:57:24.381Z,13.09
2023-04-18T07:59:53.814Z,12.91
2023-04-18T08:02:22.156Z,13.15
2023-04-18T08:04:50.044Z,13.19
2023-04-18T08:07:17.875Z,13.38
2023-04-18T08:09:45.868Z,13.48
2023-04-18T08:12:13.614Z,13.53
2023-04-18T08:14:41.763Z,13.89
2023-04-18T08:17:09.468Z,14.29
2023-04-18T08:19:37.086Z,14.61
2023-04-18T08:22:10.672Z,15.09
2023-04-18T08:24:39.466Z,15.46
2023-04-18T08:27:07.716Z,15.65
2023-04-18T08:29:35.498Z,15.66
2023-04-18T08:32:03.342Z,15.28
2023-04-18T08:34:38.292Z,14.43
2023-04-18T08:37:11.660Z,15.06
2023-04-18T08:39:39.747Z,15.57
2023-04-18T08:42:10.434Z,15.31
2023-04-18T08:44:38.510Z,14.50
2023-04-18T08:47:09.809Z,15.26
2023-04-18T08:49:38.177Z,14.41
2023-04-18T08:52:17.061Z,15.17
2023-04-18T08:54:47.002Z,15.36
2023-04-18T08:57:16.744Z,15.20
2023-04-18T08:59:48.256Z,15.11
2023-04-18T09:02:19.139Z,14.78
2023-04-18T09:04:55.275Z,14.91
2023-04-18T09:07:30.561Z,14.80
2023-04-18T09:09:58.657Z,14.35
2023-04-18T09:12:28.468Z,14.17
2023-04-18T09:15:09.959Z,14.44
2023-04-18T09:17:49.206Z,14.02
2023-04-18T09:20:34.694Z,14.36
2023-04-18T09:23:11.060Z,14.57
2023-04-18T09:25:46.378Z,14.51
2023-04-18T09:28:31.912Z,14.38
2023-04-18T09:31:12.237Z,15.06
2023-04-18T09:33:54.054Z,15.31
2023-04-18T09:36:31.195Z,15.51
2023-04-18T09:38:59.047Z,15.44
2023-04-18T09:41:27.426Z,14.54
2023-04-18T09:44:15.658Z,15.32
2023-04-18T09:46:47.468Z,15.95
2023-04-18T09:49:18.152Z,16.38
2023-04-18T09:51:46.794Z,16.57
2023-04-18T09:54:18.153Z,16.40
2023-04-18T09:56:47.936Z,16.92
2023-04-18T09:59:30.990Z,16.90
2023-04-18T10:02:03.784Z,16.82
2023-04-18T10:04:32.942Z,16.54
2023-04-18T10:07:02.005Z,16.62
2023-04-18T10:09:32.017Z,16.90
2023-04-18T10:12:02.320Z,16.42
2023-04-18T10:14:33.763Z,15.68
2023-04-18T10:17:02.152Z,16.19
2023-04-18T10:19:30.699Z,16.41
2023-04-18T10:22:01.179Z,16.77
2023-04-18T10:24:56.342Z,17.38
2023-04-18T10:27:49.389Z,17.68
2023-04-18T10:30:18.217Z,16.92
2023-04-18T10:32:49.081Z,17.52
2023-04-18T10:35:16.708Z,17.14
2023-04-18T10:37:51.831Z,17.05
2023-04-18T10:40:36.466Z,16.97
2023-04-18T10:43:04.289Z,17.17
2023-04-18T10:45:36.385Z,16.98
2023-04-18T10:48:32.641Z,16.78
2023-04-18T10:51:17.969Z,16.67
2023-04-18T10:53:59.041Z,16.17
2023-04-18T10:56:28.184Z,16.65
2023-04-18T10:58:59.240Z,16.67
2023-04-18T11:01:32.420Z,16.68
2023-04-18T11:04:01.591Z,16.79
2023-04-18T11:06:31.324Z,17.25
2023-04-18T11:09:15.950Z,17.61
2023-04-18T11:11:44.301Z,17.60
2023-04-18T11:14:12.695Z,17.31
2023-04-18T11:16:40.812Z,16.60
2023-04-18T11:19:29.994Z,15.90
2023-04-18T11:22:02.482Z,16.29
2023-04-18T11:24:30.752Z,16.27
2023-04-18T11:26:58.511Z,16.13
2023-04-18T11:29:27.642Z,15.68
2023-04-18T11:31:57.754Z,16.44
2023-04-18T11:34:32.279Z,16.39
2023-04-18T11:37:00.300Z,15.97
2023-04-18T11:39:28.221Z,16.44
2023-04-18T11:41:57.206Z,16.49
2023-04-18T11:44:26.630Z,16.07
2023-04-18T11:46:54.936Z,16.27
2023-04-18T11:49:31.910Z,16.47
2023-04-18T11:52:01.230Z,16.93
2023-04-18T11:54:45.021Z,17.29
2023-04-18T11:57:28.943Z,16.97
2023-04-18T12:00:01.551Z,17.16
2023-04-18T12:02:50.892Z,16.94
2023-04-18T12:05:32.026Z,16.96
2023-04-18T12:08:20.690Z,16.64
2023-04-18T12:10:51.049Z,16.93
2023-04-18T12:13:25.667Z,16.65
2023-04-18T12:15:54.507Z,17.15
2023-04-18T12:18:24.443Z,17.47
2023-04-18T12:20:59.810Z,17.92
2023-04-18T12:23:41.984Z,17.09
2023-04-18T12:26:18.798Z,17.55
2023-04-18T12:28:51.091Z,17.13
2023-04-18T12:31:18.868Z,16.79
2023-04-18T12:33:46.507Z,16.51
2023-04-18T12:36:14.114Z,16.30
2023-04-18T12:38:42.032Z,17.04
2023-04-18T12:41:09.804Z,16.81
2023-04-18T12:43:37.586Z,17.53
2023-04-18T12:46:05.843Z,17.18
2023-04-18T12:48:33.607Z,17.16
2023-04-18T12:51:01.234Z,17.80
2023-04-18T12:53:28.863Z,17.03
2023-04-18T12:55:57.040Z,16.51
2023-04-18T12:58:24.823Z,16.80
2023-04-18T13:00:52.499Z,16.56
2023-04-18T13:03:21.158Z,16.68
2023-04-18T13:05:49.840Z,17.04
2023-04-18T13:08:18.207Z,17.82
2023-04-18T13:10:47.532Z,18.29
2023-04-18T13:13:15.807Z,17.82
2023-04-18T13:15:43.719Z,18.28
2023-04-18T13:18:11.369Z,17.96
2023-04-18T13:20:39.019Z,18.15
2023-04-18T13:23:07.002Z,17.84
2023-04-18T13:25:34.915Z,17.15
2023-04-18T13:28:02.870Z,17.52
2023-04-18T13:30:31.973Z,18.12
2023-04-18T13:32:59.746Z,18.15
2023-04-18T13:35:27.490Z,17.88
2023-04-18T13:37:56.041Z,17.56
2023-04-18T13:40:24.202Z,17.45
2023-04-18T13:42:51.903Z,16.87
2023-04-18T13:45:20.610Z,16.84
2023-04-18T13:47:48.367Z,16.90
2023-04-18T13:50:16.403Z,17.13
2023-04-18T13:52:44.137Z,17.24
2023-04-18T13:55:12.402Z,17.63
2023-04-18T13:57:41.154Z,17.41
2023-04-18T14:00:09.981Z,16.63
2023-04-18T14:02:41.419Z,15.86
2023-04-18T14:05:10.028Z,16.38
2023-04-18T14:07:38.477Z,16.21
2023-04-18T14:10:06.905Z,16.04
2023-04-18T14:12:34.705Z,16.26
2023-04-18T14:15:02.294Z,16.11
2023-04-18T14:17:31.234Z,15.81
2023-04-18T14:19:59.104Z,16.39
2023-04-18T14:22:26.975Z,16.84
2023-04-18T14:24:56.213Z,16.83
2023-04-18T14:27:26.071Z,17.31
2023-04-18T14:29:54.416Z,16.39
2023-04-18T14:32:22.189Z,16.80
2023-04-18T14:34:50.578Z,17.03
2023-04-18T14:37:19.281Z,17.30
2023-04-18T14:39:48.777Z,17.24
2023-04-18T14:42:20.278Z,17.04
2023-04-18T14:44:47.994Z,17.02
2023-04-18T14:47:16.323Z,17.13
2023-04-18T14:49:44.062Z,17.16
2023-04-18T14:52:11.800Z,16.99
2023-04-18T14:54:39.436Z,17.33
2023-04-18T14:57:08.396Z,17.15
2023-04-18T14:59:36.299Z,16.83
2023-04-18T15:02:04.277Z,16.53
2023-04-18T15:04:35.479Z,16.60
2023-04-18T15:07:03.200Z,16.71
2023-04-18T15:09:30.798Z,16.77
2023-04-18T15:12:00.161Z,16.86
2023-04-18T15:14:27.852Z,16.87
2023-04-18T15:16:55.934Z,16.75
2023-04-18T15:19:23.677Z,17.23
2023-04-18T15:21:51.847Z,17.24
2023-04-18T15:24:19.688Z,16.70
2023-04-18T15:26:47.985Z,17.24
2023-04-18T15:29:15.783Z,17.53
2023-04-18T15:31:43.798Z,17.21
2023-04-18T15:34:14.278Z,17.20
2023-04-18T15:36:42.256Z,17.51
2023-04-18T15:39:10.619Z,17.32
2023-04-18T15:41:39.343Z,17.19
2023-04-18T15:44:08.002Z,17.25
2023-04-18T15:46:37.824Z,17.71
2023-04-18T15:49:05.734Z,17.94
2023-04-18T15:51:36.451Z,18.02
2023-04-18T15:54:04.090Z,18.05
2023-04-18T15:56:33.156Z,17.81
2023-04-18T15:59:04.782Z,17.56
2023-04-18T16:01:33.333Z,18.00
2023-04-18T16:04:01.135Z,17.98
2023-04-18T16:06:31.141Z,17.04
2023-04-18T16:08:58.939Z,17.38
2023-04-18T16:11:26.647Z,17.72
2023-04-18T16:13:56.200Z,17.62
2023-04-18T16:16:24.192Z,16.46
2023-04-18T16:18:51.825Z,16.07
2023-04-18T16:21:19.426Z,16.37
2023-04-18T16:23:47.265Z,16.55
2023-04-18T16:26:15.210Z,16.61
2023-04-18T16:28:43.095Z,16.10
2023-04-18T16:31:10.704Z,16.23
2023-04-18T16:33:38.525Z,16.08
2023-04-18T16:36:07.129Z,16.55
2023-04-18T16:38:34.688Z,16.70
2023-04-18T16:41:02.429Z,16.64
2023-04-18T16:43:31.123Z,15.89
2023-04-18T16:46:05.071Z,15.53
2023-04-18T16:48:32.994Z,15.90
2023-04-18T16:51:00.628Z,15.52
2023-04-18T16:53:28.335Z,15.45
2023-04-18T16:55:55.995Z,15.63
2023-04-18T16:58:23.852Z,15.73
2023-04-18T17:00:52.609Z,15.88
2023-04-18T17:03:20.325Z,15.85
2023-04-18T17:05:48.400Z,15.39
2023-04-18T17:08:17.882Z,15.32
2023-04-18T17:10:45.658Z,15.57
2023-04-18T17:13:13.650Z,15.60
2023-04-18T17:15:42.818Z,15.11
2023-04-18T17:18:10.612Z,15.45
2023-04-18T17:20:38.361Z,14.97
2023-04-18T17:23:06.610Z,15.39
2023-04-18T17:25:35.016Z,15.32
2023-04-18T17:28:03.526Z,15.47
2023-04-18T17:30:31.531Z,15.41
2023-04-18T17:32:59.188Z,15.07
2023-04-18T17:35:26.857Z,15.26
2023-04-18T17:37:54.783Z,15.46
2023-04-18T17:40:22.767Z,15.52
2023-04-18T17:42:50.401Z,15.51
2023-04-18T17:45:20.461Z,15.62
2023-04-18T17:47:51.099Z,15.67
2023-04-18T17:50:25.044Z,15.74
2023-04-18T17:52:53.179Z,15.49
2023-04-18T17:55:20.931Z,15.45
2023-04-18T17:57:48.474Z,15.23
2023-04-18T18:00:17.473Z,15.29
2023-04-18T18:02:45.602Z,15.43
2023-04-18T18:05:13.562Z,15.43
2023-04-18T18:07:45.818Z,15.24
2023-04-18T18:10:18.988Z,15.31
2023-04-18T18:12:46.661Z,15.43
2023-04-18T18:15:15.135Z,15.48
2023-04-18T18:17:42.766Z,15.52
2023-04-18T18:20:12.384Z,15.43
2023-04-18T18:22:40.498Z,15.17
2023-04-18T18:25:08.911Z,14.72
2023-04-18T18:27:36.876Z,15.13
2023-04-18T18:30:08.412Z,14.89
2023-04-18T18:32:36.095Z,14.96
2023-04-18T18:35:05.876Z,15.10
2023-04-18T18:37:33.982Z,14.97
2023-04-18T18:40:07.399Z,14.76
2023-04-18T18:42:35.255Z,14.89
2023-04-18T18:45:03.888Z,15.05
2023-04-18T18:47:31.929Z,15.02
2023-04-18T18:49:59.539Z,15.11
2023-04-18T18:52:29.939Z,15.13
2023-04-18T18:54:57.963Z,15.10
2023-04-18T18:57:28.703Z,15.07
2023-04-18T18:59:56.314Z,15.02
2023-04-18T19:02:24.591Z,15.08
2023-04-18T19:04:52.876Z,15.04
2023-04-18T19:07:20.564Z,15.02
2023-04-18T19:09:48.290Z,14.76
2023-04-18T19:12:16.244Z,14.73
2023-04-18T19:14:44.703Z,14.57
2023-04-18T19:17:12.838Z,14.50
2023-04-18T19:19:42.078Z,14.42
2023-04-18T19:22:10.011Z,14.49
2023-04-18T19:24:38.709Z,14.43
2023-04-18T19:27:06.592Z,14.20
2023-04-18T19:29:36.067Z,14.22
2023-04-18T19:32:03.868Z,14.18
2023-04-18T19:34:31.539Z,14.18
2023-04-18T19:36:59.743Z,14.15
2023-04-18T19:39:27.545Z,14.09
2023-04-18T19:41:55.228Z,14.14
2023-04-18T19:44:23.008Z,13.86
2023-04-18T19:46:50.716Z,13.83
2023-04-18T19:49:18.436Z,13.97
2023-04-18T19:51:50.135Z,14.10
2023-04-18T19:54:20.974Z,13.74
2023-04-18T19:56:49.847Z,13.95
2023-04-18T19:59:17.505Z,14.02
2023-04-18T20:01:51.063Z,14.07
2023-04-18T20:04:19.137Z,14.18
2023-04-18T20:06:48.326Z,13.88
2023-04-18T20:13:22.686Z,13.67
2023-04-18T20:15:50.503Z,13.50
2023-04-18T20:18:18.228Z,13.78
2023-04-18T20:20:46.160Z,13.81
2023-04-18T20:23:14.551Z,13.93
2023-04-18T20:25:43.517Z,13.72
2023-04-18T20:28:11.656Z,13.80
2023-04-18T20:30:39.408Z,13.74
2023-04-18T20:33:07.127Z,13.56
2023-04-18T20:35:34.805Z,13.49
2023-04-18T20:38:02.682Z,13.32
2023-04-18T20:40:30.351Z,13.30
2023-04-18T20:42:58.398Z,13.42
2023-04-18T20:45:27.445Z,13.61
2023-04-18T20:47:55.504Z,13.39
2023-04-18T20:50:23.186Z,13.37
2023-04-18T20:52:51.497Z,12.73
2023-04-18T20:55:19.955Z,13.14
2023-04-18T20:57:47.700Z,13.21
2023-04-18T21:00:15.959Z,13.18
2023-04-18T21:02:45.288Z,13.30
2023-04-18T21:05:13.249Z,12.92
2023-04-18T21:07:40.774Z,12.89
2023-04-18T21:10:09.002Z,13.21
2023-04-18T21:12:36.805Z,13.02
2023-04-18T21:15:05.519Z,13.33
2023-04-18T21:17:33.251Z,13.20
2023-04-18T21:20:01.641Z,13.37
2023-04-18T21:22:29.742Z,13.11
2023-04-18T21:24:57.739Z,12.95
2023-04-18T21:27:25.751Z,12.83
2023-04-18T21:29:53.420Z,13.09
2023-04-18T21:32:21.777Z,12.84
2023-04-18T21:34:49.644Z,13.19
2023-04-18T21:37:17.657Z,13.41
2023-04-18T21:39:45.608Z,13.20
2023-04-18T21:42:13.245Z,13.26
2023-04-18T21:44:40.827Z,13.20
2023-04-18T21:47:08.409Z,12.94
2023-04-18T21:49:36.099Z,12.66
2023-04-18T21:52:03.721Z,12.78
2023-04-18T21:54:31.310Z,12.94
2023-04-18T21:56:58.947Z,12.78
2023-04-18T21:59:26.740Z,12.93
2023-04-18T22:01:57.724Z,13.09
2023-04-18T22:04:26.673Z,13.09
2023-04-18T22:06:54.692Z,12.89
2023-04-18T22:09:23.474Z,13.07
2023-04-18T22:11:56.974Z,12.99
2023-04-18T22:14:26.000Z,12.98
2023-04-18T22:16:53.918Z,13.18
2023-04-18T22:19:29.340Z,13.19
2023-04-18T22:21:57.311Z,13.32
2023-04-18T22:24:26.127Z,13.28
2023-04-18T22:26:54.473Z,13.34
2023-04-18T22:29:22.275Z,13.16
2023-04-18T22:31:50.825Z,13.19
2023-04-18T22:34:18.942Z,13.11
2023-04-18T22:36:46.845Z,13.11
2023-04-18T22:39:14.450Z,12.97
2023-04-18T22:41:41.971Z,12.86
2023-04-18T22:44:09.587Z,12.83
2023-04-18T22:46:38.579Z,13.08
2023-04-18T22:49:07.268Z,12.82
2023-04-18T22:51:34.899Z,12.81
2023-04-18T22:54:02.554Z,12.71
2023-04-18T22:56:30.154Z,12.59
2023-04-18T22:58:57.714Z,12.58
2023-04-18T23:01:25.394Z,12.69
2023-04-18T23:03:53.317Z,12.71
2023-04-18T23:06:20.969Z,12.56
2023-04-18T23:08:48.548Z,12.68
2023-04-18T23:11:16.780Z,12.84
2023-04-18T23:13:44.405Z,12.84
2023-04-18T23:16:12.262Z,13.04
2023-04-18T23:18:39.848Z,12.79
2023-04-18T23:21:07.531Z,12.51
2023-04-18T23:23:35.117Z,12.83
2023-04-18T23:26:02.820Z,12.60
2023-04-18T23:28:30.438Z,12.69
2023-04-18T23:30:58.109Z,12.71
2023-04-18T23:33:25.849Z,12.70
2023-04-18T23:35:53.416Z,12.88
2023-04-18T23:38:20.995Z,12.81
2023-04-18T23:40:48.561Z,12.60
2023-04-18T23:43:16.207Z,12.58
2023-04-18T23:45:43.821Z,12.79
2023-04-18T23:48:12.100Z,12.17
2023-04-18T23:50:50.224Z,12.59
2023-04-18T23:53:18.210Z,12.52
2023-04-18T23:55:47.992Z,12.66
2023-04-18T23:58:16.503Z,12.78
